createdAt,value
2023-02-19T00:01:07.906Z,72.70
2023-02-19T00:03:34.616Z,72.70
2023-02-19T00:06:01.134Z,72.80
2023-02-19T00:08:27.596Z,72.80
2023-02-19T00:10:54.061Z,72.80
2023-02-19T00:13:20.530Z,72.80
2023-02-19T00:15:47.070Z,72.80
2023-02-19T00:18:13.563Z,72.80
2023-02-19T00:20:40.053Z,72.80
2023-02-19T00:23:06.520Z,72.80
2023-02-19T00:25:33.024Z,72.80
2023-02-19T00:27:59.495Z,72.90
2023-02-19T00:30:26.012Z,72.90
2023-02-19T00:32:52.539Z,72.90
2023-02-19T00:35:19.025Z,72.80
2023-02-19T00:37:45.503Z,72.90
2023-02-19T00:40:11.993Z,72.80
2023-02-19T00:42:38.482Z,72.80
2023-02-19T00:45:04.975Z,72.80
2023-02-19T00:47:31.453Z,73.00
2023-02-19T00:49:57.926Z,72.90
2023-02-19T00:52:24.422Z,72.90
2023-02-19T00:54:50.903Z,72.80
2023-02-19T00:57:17.423Z,72.90
2023-02-19T00:59:43.894Z,72.90
2023-02-19T01:02:10.390Z,72.90
2023-02-19T01:04:36.860Z,72.90
2023-02-19T01:07:03.350Z,72.90
2023-02-19T01:09:29.831Z,72.90
2023-02-19T01:11:56.335Z,72.90
2023-02-19T01:14:22.827Z,72.90
2023-02-19T01:16:49.306Z,72.80
2023-02-19T01:19:15.788Z,72.90
2023-02-19T01:21:42.301Z,72.80
2023-02-19T01:24:08.768Z,72.90
2023-02-19T01:26:35.258Z,72.90
2023-02-19T01:29:01.737Z,72.90
2023-02-19T01:31:28.313Z,72.90
2023-02-19T01:33:54.880Z,72.90
2023-02-19T01:36:21.380Z,72.90
2023-02-19T01:38:47.848Z,72.90
2023-02-19T01:41:14.343Z,72.90
2023-02-19T01:43:40.812Z,72.80
2023-02-19T01:46:07.281Z,72.90
2023-02-19T01:48:33.748Z,72.80
2023-02-19T01:51:00.227Z,72.80
2023-02-19T01:53:26.701Z,72.90
2023-02-19T01:55:53.197Z,72.90
2023-02-19T01:58:19.670Z,72.90
2023-02-19T02:00:46.184Z,72.90
2023-02-19T02:03:12.666Z,73.00
2023-02-19T02:05:39.170Z,72.90
2023-02-19T02:08:05.598Z,72.90
2023-02-19T02:10:32.066Z,72.90
2023-02-19T02:12:58.553Z,73.00
2023-02-19T02:15:25.042Z,73.00
2023-02-19T02:17:51.522Z,73.00
2023-02-19T02:20:17.998Z,73.00
2023-02-19T02:22:44.486Z,73.10
2023-02-19T02:25:10.974Z,73.10
2023-02-19T02:27:37.453Z,73.00
2023-02-19T02:30:03.935Z,73.10
2023-02-19T02:32:30.425Z,73.10
2023-02-19T02:34:56.905Z,73.10
2023-02-19T02:37:23.373Z,73.10
2023-02-19T02:39:49.876Z,73.10
2023-02-19T02:42:16.355Z,73.20
2023-02-19T02:44:42.834Z,73.20
2023-02-19T02:47:12.082Z,73.10
2023-02-19T02:49:38.552Z,73.20
2023-02-19T02:52:05.024Z,73.20
2023-02-19T02:54:31.497Z,73.20
2023-02-19T02:56:57.976Z,73.20
2023-02-19T02:59:24.445Z,73.20
2023-02-19T03:01:50.931Z,73.20
2023-02-19T03:04:17.431Z,73.20
2023-02-19T03:06:43.918Z,73.20
2023-02-19T03:09:10.417Z,73.30
2023-02-19T03:11:36.903Z,73.20
2023-02-19T03:14:03.372Z,73.20
2023-02-19T03:16:29.918Z,73.20
2023-02-19T03:18:56.410Z,73.20
2023-02-19T03:21:22.890Z,73.10
2023-02-19T03:23:49.362Z,73.20
2023-02-19T03:26:15.993Z,73.20
2023-02-19T03:28:42.466Z,73.20
2023-02-19T03:31:09.222Z,73.30
2023-02-19T03:33:35.922Z,73.30
2023-02-19T03:36:02.422Z,73.20
2023-02-19T03:38:28.901Z,73.20
2023-02-19T03:40:55.380Z,73.30
2023-02-19T03:43:21.860Z,73.20
2023-02-19T03:45:48.397Z,73.20
2023-02-19T03:48:14.888Z,73.20
2023-02-19T03:50:41.377Z,73.20
2023-02-19T03:53:07.865Z,73.20
2023-02-19T03:55:34.346Z,73.30
2023-02-19T03:58:00.831Z,73.20
2023-02-19T04:00:27.312Z,73.10
2023-02-19T04:02:53.798Z,73.20
2023-02-19T04:05:20.284Z,73.20
2023-02-19T04:07:46.770Z,73.10
2023-02-19T04:10:13.232Z,73.10
2023-02-19T04:12:42.160Z,73.20
2023-02-19T04:15:08.619Z,73.10
2023-02-19T04:17:35.096Z,73.10
2023-02-19T04:20:01.574Z,73.10
2023-02-19T04:22:28.059Z,73.00
2023-02-19T04:24:54.529Z,73.00
2023-02-19T04:27:24.174Z,73.00
2023-02-19T04:29:50.650Z,73.00
2023-02-19T04:32:17.133Z,72.90
2023-02-19T04:34:43.627Z,72.90
2023-02-19T04:37:10.129Z,72.80
2023-02-19T04:39:36.628Z,72.90
2023-02-19T04:42:03.112Z,72.90
2023-02-19T04:44:29.590Z,72.90
2023-02-19T04:46:56.077Z,72.80
2023-02-19T04:49:22.571Z,72.90
2023-02-19T04:51:49.042Z,72.90
2023-02-19T04:54:15.517Z,72.80
2023-02-19T04:56:42.010Z,72.80
2023-02-19T04:59:08.505Z,72.80
2023-02-19T05:01:35.049Z,72.80
2023-02-19T05:04:01.606Z,72.90
2023-02-19T05:06:28.110Z,72.80
2023-02-19T05:08:54.595Z,72.80
2023-02-19T05:11:21.060Z,72.80
2023-02-19T05:13:47.613Z,72.80
2023-02-19T05:16:14.126Z,72.70
2023-02-19T05:18:40.574Z,72.60
2023-02-19T05:21:07.058Z,72.60
2023-02-19T05:23:33.543Z,72.60
2023-02-19T05:26:00.026Z,72.60
2023-02-19T05:28:26.512Z,72.60
2023-02-19T05:30:53.050Z,72.60
2023-02-19T05:33:24.215Z,72.60
2023-02-19T05:35:50.689Z,72.60
2023-02-19T05:38:17.172Z,72.60
2023-02-19T05:40:43.641Z,72.60
2023-02-19T05:43:10.136Z,72.50
2023-02-19T05:45:36.619Z,72.50
2023-02-19T05:48:03.603Z,72.50
2023-02-19T05:50:30.061Z,72.50
2023-02-19T05:52:56.539Z,72.50
2023-02-19T05:55:23.017Z,72.50
2023-02-19T05:57:49.494Z,72.40
2023-02-19T06:00:15.989Z,72.40
2023-02-19T06:02:42.499Z,72.40
2023-02-19T06:05:08.985Z,72.40
2023-02-19T06:07:36.239Z,72.40
2023-02-19T06:10:02.708Z,72.40
2023-02-19T06:12:29.209Z,72.30
2023-02-19T06:14:55.696Z,72.30
2023-02-19T06:17:22.178Z,72.30
2023-02-19T06:19:48.639Z,72.30
2023-02-19T06:22:15.102Z,72.30
2023-02-19T06:24:41.560Z,72.20
2023-02-19T06:27:08.048Z,72.30
2023-02-19T06:29:34.520Z,72.30
2023-02-19T06:32:01.086Z,72.30
2023-02-19T06:34:27.618Z,72.30
2023-02-19T06:36:54.306Z,72.30
2023-02-19T06:39:20.810Z,72.20
2023-02-19T06:41:47.298Z,72.20
2023-02-19T06:44:18.275Z,72.20
2023-02-19T06:46:44.762Z,72.20
2023-02-19T06:49:12.279Z,72.20
2023-02-19T06:51:38.742Z,72.20
2023-02-19T06:54:05.250Z,72.20
2023-02-19T06:56:31.721Z,72.10
2023-02-19T06:58:58.198Z,72.10
2023-02-19T07:01:24.686Z,72.10
2023-02-19T07:03:51.209Z,72.10
2023-02-19T07:06:19.114Z,72.10
2023-02-19T07:08:45.593Z,72.10
2023-02-19T07:11:12.250Z,72.00
2023-02-19T07:13:38.841Z,72.20
2023-02-19T07:16:05.356Z,72.10
2023-02-19T07:18:36.285Z,72.10
2023-02-19T07:21:02.768Z,72.00
2023-02-19T07:23:29.234Z,72.10
2023-02-19T07:25:55.716Z,72.00
2023-02-19T07:28:24.311Z,72.00
2023-02-19T07:30:54.403Z,71.90
2023-02-19T07:33:20.898Z,71.90
2023-02-19T07:35:47.391Z,72.00
2023-02-19T07:38:13.890Z,71.90
2023-02-19T07:40:42.270Z,72.00
2023-02-19T07:43:08.763Z,71.90
2023-02-19T07:45:35.297Z,72.00
2023-02-19T07:48:01.809Z,71.90
2023-02-19T07:50:28.308Z,72.00
2023-02-19T07:52:54.817Z,72.00
2023-02-19T07:55:21.371Z,72.00
2023-02-19T07:57:47.832Z,71.90
2023-02-19T08:00:14.293Z,71.90
2023-02-19T08:02:40.754Z,71.80
2023-02-19T08:05:07.227Z,71.90
2023-02-19T08:07:33.691Z,71.90
2023-02-19T08:10:00.345Z,71.80
2023-02-19T08:12:26.820Z,71.90
2023-02-19T08:14:53.316Z,71.80
2023-02-19T08:17:19.830Z,71.80
2023-02-19T08:19:46.376Z,71.80
2023-02-19T08:22:12.855Z,71.80
2023-02-19T08:24:39.292Z,71.90
2023-02-19T08:27:05.755Z,71.80
2023-02-19T08:29:36.352Z,71.80
2023-02-19T08:32:02.846Z,71.80
2023-02-19T08:34:29.368Z,71.80
2023-02-19T08:36:55.830Z,71.80
2023-02-19T08:39:22.334Z,71.70
2023-02-19T08:41:48.808Z,71.80
2023-02-19T08:44:15.300Z,71.80
2023-02-19T08:46:41.799Z,71.90
2023-02-19T08:49:08.293Z,71.80
2023-02-19T08:51:34.769Z,71.80
2023-02-19T08:54:01.252Z,71.80
2023-02-19T08:56:27.731Z,71.80
2023-02-19T08:58:54.214Z,71.90
2023-02-19T09:01:20.758Z,71.80
2023-02-19T09:03:47.266Z,71.80
2023-02-19T09:06:13.755Z,71.70
2023-02-19T09:08:40.251Z,71.70
2023-02-19T09:11:06.730Z,71.70
2023-02-19T09:13:33.211Z,71.70
2023-02-19T09:15:59.737Z,71.70
2023-02-19T09:18:26.259Z,71.70
2023-02-19T09:20:52.750Z,71.60
2023-02-19T09:23:19.213Z,71.70
2023-02-19T09:25:45.689Z,71.70
2023-02-19T09:28:12.170Z,71.70
2023-02-19T09:30:38.718Z,71.60
2023-02-19T09:33:05.205Z,71.60
2023-02-19T09:35:31.686Z,71.60
2023-02-19T09:37:58.166Z,71.60
2023-02-19T09:40:24.642Z,71.60
2023-02-19T09:42:51.065Z,71.60
2023-02-19T09:45:17.553Z,71.60
2023-02-19T09:47:44.025Z,71.60
2023-02-19T09:50:12.418Z,71.50
2023-02-19T09:52:38.890Z,71.60
2023-02-19T09:55:05.364Z,71.50
2023-02-19T09:57:31.833Z,71.60
2023-02-19T09:59:58.323Z,71.60
2023-02-19T10:02:24.803Z,71.50
2023-02-19T10:04:51.390Z,71.60
2023-02-19T10:07:17.961Z,71.50
2023-02-19T10:09:44.440Z,71.50
2023-02-19T10:12:10.907Z,71.50
2023-02-19T10:14:37.369Z,71.50
2023-02-19T10:17:03.849Z,71.60
2023-02-19T10:19:30.320Z,71.50
2023-02-19T10:21:56.842Z,71.50
2023-02-19T10:24:23.331Z,71.50
2023-02-19T10:26:49.830Z,71.50
2023-02-19T10:29:16.302Z,71.60
2023-02-19T10:31:42.836Z,71.50
2023-02-19T10:34:09.338Z,71.60
2023-02-19T10:36:35.828Z,71.60
2023-02-19T10:39:02.305Z,71.50
2023-02-19T10:41:28.806Z,71.50
2023-02-19T10:44:00.524Z,71.50
2023-02-19T10:46:27.040Z,71.40
2023-02-19T10:48:53.532Z,71.50
2023-02-19T10:51:20.026Z,71.50
2023-02-19T10:53:46.497Z,71.40
2023-02-19T10:56:18.472Z,71.50
2023-02-19T10:58:44.969Z,71.50
2023-02-19T11:01:11.738Z,71.30
2023-02-19T11:03:38.394Z,71.50
2023-02-19T11:06:04.869Z,71.50
2023-02-19T11:08:31.346Z,71.50
2023-02-19T11:10:57.824Z,71.40
2023-02-19T11:13:24.320Z,71.40
2023-02-19T11:18:41.811Z,71.30
2023-02-19T11:21:08.477Z,71.50
2023-02-19T11:23:35.080Z,71.40
2023-02-19T11:26:01.558Z,71.30
2023-02-19T11:28:28.029Z,71.40
2023-02-19T11:30:54.495Z,71.40
2023-02-19T11:33:20.961Z,71.30
2023-02-19T11:35:47.443Z,71.40
2023-02-19T11:38:13.915Z,71.30
2023-02-19T11:40:40.396Z,71.30
2023-02-19T11:43:06.875Z,71.30
2023-02-19T11:45:33.357Z,71.20
2023-02-19T11:47:59.840Z,71.20
2023-02-19T11:50:26.338Z,71.30
2023-02-19T11:52:52.800Z,71.30
2023-02-19T11:55:19.295Z,71.30
2023-02-19T11:57:45.770Z,71.20
2023-02-19T12:00:12.274Z,71.20
2023-02-19T12:02:38.728Z,71.20
2023-02-19T12:05:05.248Z,71.20
2023-02-19T12:07:31.750Z,71.10
2023-02-19T12:09:58.233Z,71.10
2023-02-19T12:12:24.724Z,71.10
2023-02-19T12:14:51.204Z,71.10
2023-02-19T12:17:17.687Z,71.10
2023-02-19T12:19:44.168Z,71.10
2023-02-19T12:22:10.655Z,71.10
2023-02-19T12:24:37.145Z,71.10
2023-02-19T12:27:03.634Z,71.10
2023-02-19T12:29:30.110Z,71.10
2023-02-19T12:32:00.563Z,71.00
2023-02-19T12:34:27.036Z,71.00
2023-02-19T12:36:53.510Z,71.00
2023-02-19T12:39:19.990Z,71.00
2023-02-19T12:41:46.476Z,70.90
2023-02-19T12:44:12.947Z,70.90
2023-02-19T12:46:39.434Z,70.90
2023-02-19T12:49:05.908Z,70.80
2023-02-19T12:51:32.393Z,70.90
2023-02-19T12:53:58.917Z,70.90
2023-02-19T12:56:25.405Z,70.90
2023-02-19T12:58:51.879Z,70.90
2023-02-19T13:01:18.367Z,70.90
2023-02-19T13:03:44.884Z,70.90
2023-02-19T13:06:12.745Z,70.90
2023-02-19T13:08:48.748Z,70.90
2023-02-19T13:11:19.677Z,70.80
2023-02-19T13:13:46.204Z,70.80
2023-02-19T13:16:12.950Z,70.70
2023-02-19T13:18:39.679Z,70.80
2023-02-19T13:21:06.172Z,70.80
2023-02-19T13:23:32.651Z,70.80
2023-02-19T13:25:59.119Z,70.80
2023-02-19T13:28:25.597Z,70.80
2023-02-19T13:30:52.215Z,70.70
2023-02-19T13:33:18.823Z,70.80
2023-02-19T13:35:45.291Z,70.80
2023-02-19T13:38:11.764Z,70.80
2023-02-19T13:40:38.248Z,70.80
2023-02-19T13:43:04.752Z,70.80
2023-02-19T13:45:31.268Z,70.80
2023-02-19T13:47:57.732Z,70.80
2023-02-19T13:50:24.208Z,70.70
2023-02-19T13:52:50.673Z,70.70
2023-02-19T13:55:18.633Z,70.70
2023-02-19T13:57:45.332Z,70.70
2023-02-19T14:00:11.812Z,70.70
2023-02-19T14:02:38.330Z,70.70
2023-02-19T14:05:04.808Z,70.70
2023-02-19T14:07:31.296Z,70.70
2023-02-19T14:09:57.777Z,70.70
2023-02-19T14:12:24.245Z,70.70
2023-02-19T14:14:50.730Z,70.70
2023-02-19T14:17:18.655Z,70.70
2023-02-19T14:19:45.122Z,70.70
2023-02-19T14:22:12.636Z,70.70
2023-02-19T14:24:39.117Z,70.60
2023-02-19T14:27:05.690Z,70.70
2023-02-19T14:29:32.163Z,70.60
2023-02-19T14:31:58.795Z,70.60
2023-02-19T14:34:25.310Z,70.70
2023-02-19T14:36:51.800Z,70.70
2023-02-19T14:39:18.280Z,70.60
2023-02-19T14:41:44.776Z,70.60
2023-02-19T14:44:11.243Z,70.50
2023-02-19T14:46:37.798Z,70.60
2023-02-19T14:49:04.317Z,70.50
2023-02-19T14:51:30.797Z,70.50
2023-02-19T14:53:57.282Z,70.60
2023-02-19T14:56:23.807Z,70.60
2023-02-19T14:58:50.269Z,70.60
2023-02-19T15:01:16.761Z,70.50
2023-02-19T15:03:43.245Z,70.60
2023-02-19T15:06:09.749Z,70.60
2023-02-19T15:08:36.216Z,70.60
2023-02-19T15:11:02.805Z,70.60
2023-02-19T15:13:29.289Z,70.60
2023-02-19T15:15:55.831Z,70.60
2023-02-19T15:18:22.320Z,70.50
2023-02-19T15:20:48.816Z,70.50
2023-02-19T15:23:15.286Z,70.30
2023-02-19T15:25:41.837Z,70.40
2023-02-19T15:28:08.333Z,70.40
2023-02-19T15:30:34.963Z,70.40
2023-02-19T15:33:01.511Z,70.30
2023-02-19T15:35:28.044Z,70.30
2023-02-19T15:37:54.520Z,70.30
2023-02-19T15:40:21.024Z,70.30
2023-02-19T15:42:47.490Z,70.30
2023-02-19T15:45:13.938Z,70.20
2023-02-19T15:47:40.411Z,70.30
2023-02-19T15:50:06.880Z,70.30
2023-02-19T15:52:33.346Z,70.30
2023-02-19T15:55:00.732Z,70.20
2023-02-19T15:57:27.231Z,70.20
2023-02-19T15:59:53.705Z,70.20
2023-02-19T16:02:20.201Z,70.20
2023-02-19T16:04:46.680Z,70.30
2023-02-19T16:07:13.165Z,70.30
2023-02-19T16:09:39.665Z,70.30
2023-02-19T16:12:06.202Z,70.30
2023-02-19T16:14:32.679Z,70.20
2023-02-19T16:16:59.179Z,70.10
2023-02-19T16:19:28.167Z,70.20
2023-02-19T16:21:54.936Z,70.20
2023-02-19T16:24:21.418Z,70.10
2023-02-19T16:26:47.887Z,70.10
2023-02-19T16:29:14.340Z,70.10
2023-02-19T16:31:40.906Z,70.10
2023-02-19T16:34:07.449Z,70.10
2023-02-19T16:36:36.786Z,70.10
2023-02-19T16:39:03.251Z,70.10
2023-02-19T16:41:30.757Z,70.00
2023-02-19T16:43:57.221Z,70.00
2023-02-19T16:46:23.713Z,69.90
2023-02-19T16:48:50.180Z,70.00
2023-02-19T16:51:16.639Z,70.00
2023-02-19T16:53:43.303Z,69.90
2023-02-19T16:56:09.781Z,69.90
2023-02-19T16:58:38.271Z,69.80
2023-02-19T17:01:06.413Z,69.70
2023-02-19T17:03:32.926Z,69.70
2023-02-19T17:05:59.432Z,69.60
2023-02-19T17:08:25.924Z,69.40
2023-02-19T17:10:53.618Z,69.60
2023-02-19T17:13:21.672Z,69.10
2023-02-19T17:15:48.164Z,69.20
2023-02-19T17:18:17.728Z,68.80
2023-02-19T17:20:44.232Z,69.00
2023-02-19T17:23:10.696Z,69.00
2023-02-19T17:25:37.175Z,68.80
2023-02-19T17:28:03.637Z,68.80
2023-02-19T17:30:30.157Z,69.00
2023-02-19T17:32:56.662Z,69.00
2023-02-19T17:35:23.143Z,68.80
2023-02-19T17:37:51.317Z,68.80
2023-02-19T17:40:30.668Z,68.80
2023-02-19T17:42:59.031Z,68.50
2023-02-19T17:45:25.518Z,68.20
2023-02-19T17:47:52.003Z,68.30
2023-02-19T17:50:18.503Z,68.20
2023-02-19T17:52:44.969Z,68.20
2023-02-19T17:55:11.501Z,68.10
2023-02-19T17:57:38.013Z,68.20
2023-02-19T18:00:04.489Z,67.90
2023-02-19T18:05:21.803Z,67.90
2023-02-19T18:07:48.305Z,68.20
2023-02-19T18:10:14.787Z,67.70
2023-02-19T18:12:41.308Z,67.60
2023-02-19T18:15:07.782Z,67.80
2023-02-19T18:17:34.249Z,67.80
2023-02-19T18:20:00.717Z,67.70
2023-02-19T18:22:27.189Z,68.10
2023-02-19T18:24:53.674Z,67.80
2023-02-19T18:27:20.182Z,68.00
2023-02-19T18:29:46.646Z,67.90
2023-02-19T18:32:13.147Z,68.00
2023-02-19T18:34:39.624Z,67.80
2023-02-19T18:37:06.113Z,67.80
2023-02-19T18:39:32.589Z,67.80
2023-02-19T18:41:59.090Z,67.80
2023-02-19T18:44:25.576Z,67.90
2023-02-19T18:46:54.860Z,67.80
2023-02-19T18:49:21.321Z,67.90
2023-02-19T18:51:47.785Z,67.90
2023-02-19T18:54:14.240Z,68.00
2023-02-19T18:56:40.710Z,67.90
2023-02-19T18:59:07.180Z,67.90
2023-02-19T19:01:33.767Z,67.80
2023-02-19T19:04:00.258Z,67.80
2023-02-19T19:06:27.015Z,67.80
2023-02-19T19:08:53.508Z,67.80
2023-02-19T19:11:19.983Z,67.90
2023-02-19T19:13:46.481Z,67.90
2023-02-19T19:16:12.955Z,67.70
2023-02-19T19:18:39.447Z,67.80
2023-02-19T19:21:05.913Z,67.80
2023-02-19T19:23:32.380Z,67.80
2023-02-19T19:25:58.848Z,67.70
2023-02-19T19:28:25.315Z,67.70
2023-02-19T19:30:51.860Z,67.70
2023-02-19T19:33:18.345Z,67.70
2023-02-19T19:35:44.810Z,67.60
2023-02-19T19:38:11.294Z,67.70
2023-02-19T19:40:37.760Z,67.70
2023-02-19T19:43:04.264Z,67.70
2023-02-19T19:45:30.770Z,67.70
2023-02-19T19:47:57.289Z,67.50
2023-02-19T19:50:23.759Z,67.60
2023-02-19T19:52:50.265Z,67.50
2023-02-19T19:55:16.782Z,67.50
2023-02-19T19:57:43.280Z,67.40
2023-02-19T20:00:13.014Z,67.40
2023-02-19T20:02:42.999Z,67.30
2023-02-19T20:05:09.526Z,67.20
2023-02-19T20:07:36.001Z,67.40
2023-02-19T20:10:02.477Z,67.20
2023-02-19T20:12:28.914Z,67.30
2023-02-19T20:15:00.953Z,67.20
2023-02-19T20:17:27.423Z,67.40
2023-02-19T20:19:53.908Z,67.20
2023-02-19T20:22:20.390Z,67.30
2023-02-19T20:24:46.873Z,67.40
2023-02-19T20:27:13.340Z,67.30
2023-02-19T20:29:39.828Z,67.40
2023-02-19T20:32:06.330Z,67.10
2023-02-19T20:34:32.856Z,67.20
2023-02-19T20:36:59.340Z,67.00
2023-02-19T20:39:25.798Z,67.20
2023-02-19T20:41:52.276Z,67.00
2023-02-19T20:44:18.770Z,66.90
2023-02-19T20:46:45.301Z,67.00
2023-02-19T20:49:11.787Z,66.80
2023-02-19T20:51:38.269Z,66.70
2023-02-19T20:54:04.777Z,66.60
2023-02-19T20:56:31.245Z,66.60
2023-02-19T20:58:57.732Z,66.80
2023-02-19T21:01:24.990Z,67.00
2023-02-19T21:03:51.466Z,66.70
2023-02-19T21:06:17.964Z,66.60
2023-02-19T21:08:44.418Z,66.70
2023-02-19T21:11:10.892Z,66.90
2023-02-19T21:13:37.377Z,66.90
2023-02-19T21:16:07.052Z,66.60
2023-02-19T21:18:33.553Z,66.40
2023-02-19T21:21:00.019Z,66.50
2023-02-19T21:23:26.486Z,66.80
2023-02-19T21:25:54.572Z,66.60
2023-02-19T21:28:21.164Z,66.70
2023-02-19T21:30:47.647Z,66.30
2023-02-19T21:33:14.195Z,66.20
2023-02-19T21:35:40.670Z,66.40
2023-02-19T21:38:07.135Z,66.40
2023-02-19T21:40:33.648Z,66.50
2023-02-19T21:43:00.127Z,66.40
2023-02-19T21:45:26.655Z,66.40
2023-02-19T21:47:53.165Z,66.20
2023-02-19T21:50:19.669Z,66.40
2023-02-19T21:52:46.133Z,66.40
2023-02-19T21:55:12.609Z,66.50
2023-02-19T21:57:39.062Z,66.20
2023-02-19T22:00:05.594Z,66.30
2023-02-19T22:02:32.076Z,66.30
2023-02-19T22:05:01.014Z,66.20
2023-02-19T22:07:27.494Z,66.00
2023-02-19T22:09:53.968Z,65.90
2023-02-19T22:12:20.430Z,66.10
2023-02-19T22:14:46.925Z,66.10
2023-02-19T22:17:13.406Z,66.30
2023-02-19T22:19:39.879Z,65.90
2023-02-19T22:22:06.346Z,66.00
2023-02-19T22:24:32.824Z,66.00
2023-02-19T22:26:59.323Z,65.90
2023-02-19T22:29:25.811Z,65.80
2023-02-19T22:31:52.373Z,65.90
2023-02-19T22:34:18.884Z,65.80
2023-02-19T22:36:45.360Z,65.60
2023-02-19T22:39:11.843Z,65.70
2023-02-19T22:41:38.304Z,66.00
2023-02-19T22:44:04.777Z,65.70
2023-02-19T22:46:31.276Z,65.80
2023-02-19T22:48:57.743Z,65.90
2023-02-19T22:51:24.251Z,65.90
2023-02-19T22:53:50.742Z,65.80
2023-02-19T22:56:17.220Z,65.70
2023-02-19T22:58:43.683Z,65.70
2023-02-19T23:01:10.790Z,65.70
2023-02-19T23:03:37.269Z,65.70
2023-02-19T23:06:07.082Z,65.50
2023-02-19T23:08:33.567Z,65.40
2023-02-19T23:11:00.042Z,65.70
2023-02-19T23:13:26.520Z,65.70
2023-02-19T23:15:52.980Z,65.70
2023-02-19T23:18:19.435Z,65.40
2023-02-19T23:20:45.913Z,65.60
2023-02-19T23:23:12.366Z,65.60
2023-02-19T23:25:43.087Z,65.50
2023-02-19T23:28:09.564Z,65.50
2023-02-19T23:30:37.182Z,65.50
2023-02-19T23:33:03.687Z,65.60
2023-02-19T23:35:30.167Z,65.60
2023-02-19T23:37:56.623Z,65.40
2023-02-19T23:40:25.115Z,65.40
2023-02-19T23:42:51.590Z,65.40
2023-02-19T23:45:18.108Z,65.40
2023-02-19T23:47:44.590Z,65.20
2023-02-19T23:50:11.073Z,65.30
2023-02-19T23:52:37.565Z,65.20
2023-02-19T23:55:04.044Z,65.30
2023-02-19T23:57:30.528Z,65.10
2023-02-19T23:59:57.002Z,65.20
